Time;durP1;ratioP1;P1;durP2;ratioP2;P2;SDS_P1;SDS_P2;PMS_P1;PMS_P2;Temp;Humidity;BMP_temperature;BMP_pressure;BME280_temperature;BME280_humidity;BME280_pressure;Samples;Min_cycle;Max_cycle;Signal;HPM_P1;HPM_P2
2023/04/18 00:00:24;;;;;;;0.80;0.80;;;10.80;99.90;;;;;;5000749;28;20448;-65
2023/04/18 00:02:52;;;;;;;0.90;0.90;;;10.90;99.90;;;;;;4998227;28;20232;-64
2023/04/18 00:05:19;;;;;;;0.90;0.90;;;10.90;99.90;;;;;;4993136;28;20266;-64
2023/04/18 00:07:46;;;;;;;0.90;0.90;;;10.80;99.90;;;;;;4992425;28;20297;-64
2023/04/18 00:10:14;;;;;;;0.88;0.88;;;10.80;99.90;;;;;;4991051;28;20715;-65
2023/04/18 00:12:41;;;;;;;0.88;0.88;;;10.80;99.90;;;;;;4992452;28;20301;-66
2023/04/18 00:15:11;;;;;;;0.80;0.80;;;10.80;99.90;;;;;;4992829;28;20304;-63
2023/04/18 00:17:38;;;;;;;0.98;0.98;;;10.80;99.90;;;;;;4994424;28;20217;-66
2023/04/18 00:20:09;;;;;;;1.00;1.00;;;10.80;99.90;;;;;;4995875;28;20229;-65
2023/04/18 00:22:41;;;;;;;0.90;0.90;;;10.80;99.90;;;;;;4997312;28;20309;-64
2023/04/18 00:25:08;;;;;;;1.00;1.00;;;10.70;99.90;;;;;;4999259;28;20695;-65
2023/04/18 00:27:35;;;;;;;0.70;0.70;;;10.60;99.90;;;;;;5000572;28;20210;-66
2023/04/18 00:30:02;;;;;;;0.90;0.90;;;10.60;99.90;;;;;;4998973;28;20297;-64
2023/04/18 00:32:30;;;;;;;0.83;0.83;;;10.50;99.90;;;;;;4996597;28;20575;-64
2023/04/18 00:34:57;;;;;;;1.05;1.05;;;10.60;99.90;;;;;;4995998;28;20208;-65
2023/04/18 00:37:24;;;;;;;1.00;1.00;;;10.60;99.90;;;;;;4996301;28;20212;-65
2023/04/18 00:39:52;;;;;;;0.97;0.97;;;10.40;99.90;;;;;;4995593;28;20281;-65
2023/04/18 00:42:19;;;;;;;0.97;0.97;;;10.40;99.90;;;;;;4995779;28;20221;-64
2023/04/18 00:44:46;;;;;;;1.10;1.10;;;10.40;99.90;;;;;;4995969;28;20699;-66
2023/04/18 00:47:14;;;;;;;0.90;0.90;;;10.40;99.90;;;;;;4995939;28;20568;-65
2023/04/18 00:49:43;;;;;;;1.00;1.00;;;10.30;99.90;;;;;;4994610;28;20226;-65
2023/04/18 00:52:10;;;;;;;0.90;0.90;;;10.30;99.90;;;;;;4995864;28;20202;-65
2023/04/18 00:54:38;;;;;;;1.00;1.00;;;10.30;99.90;;;;;;4995693;28;20776;-66
2023/04/18 00:57:05;;;;;;;1.10;1.10;;;10.30;99.90;;;;;;4995813;28;20236;-65
2023/04/18 00:59:34;;;;;;;1.03;1.03;;;10.20;99.90;;;;;;4995150;28;20226;-64
2023/04/18 01:02:01;;;;;;;1.10;1.10;;;10.20;99.90;;;;;;4995706;28;20230;-64
2023/04/18 01:04:28;;;;;;;1.00;1.00;;;10.30;99.90;;;;;;4997245;28;20214;-64
2023/04/18 01:06:56;;;;;;;1.00;1.00;;;10.30;99.90;;;;;;4998823;28;20293;-64
2023/04/18 01:09:24;;;;;;;0.90;0.90;;;10.10;99.90;;;;;;4998128;28;20328;-64
2023/04/18 01:11:51;;;;;;;1.00;1.00;;;10.20;99.90;;;;;;4999997;28;20214;-65
2023/04/18 01:14:19;;;;;;;1.02;1.02;;;10.20;99.90;;;;;;4996395;28;20205;-65
2023/04/18 01:16:47;;;;;;;0.80;0.80;;;10.30;99.90;;;;;;4995568;28;20221;-64
2023/04/18 01:19:15;;;;;;;0.90;0.90;;;10.30;99.90;;;;;;4994533;28;20237;-64
2023/04/18 01:21:43;;;;;;;0.80;0.80;;;10.20;99.90;;;;;;4995377;28;20346;-65
2023/04/18 01:24:12;;;;;;;0.90;0.90;;;10.20;99.90;;;;;;4997328;28;20597;-65
2023/04/18 01:26:39;;;;;;;1.00;1.00;;;10.20;99.90;;;;;;4995539;28;20205;-66
2023/04/18 01:29:06;;;;;;;0.90;0.90;;;10.10;99.90;;;;;;4993582;28;20230;-65
2023/04/18 01:31:34;;;;;;;0.95;0.95;;;10.00;99.90;;;;;;4995446;28;20241;-65
2023/04/18 01:34:01;;;;;;;1.10;1.10;;;10.00;99.90;;;;;;4995642;28;20210;-65
2023/04/18 01:36:28;;;;;;;1.20;1.20;;;9.90;99.90;;;;;;4998549;28;20248;-65
2023/04/18 01:38:55;;;;;;;1.20;1.20;;;9.80;99.90;;;;;;5003900;28;20230;-64
2023/04/18 01:41:24;;;;;;;1.10;1.10;;;9.60;99.90;;;;;;4998000;28;20216;-64
2023/04/18 01:43:50;;;;;;;1.07;1.07;;;9.40;99.90;;;;;;4994816;28;20228;-65
2023/04/18 01:46:17;;;;;;;1.00;1.00;;;9.30;99.90;;;;;;4995067;28;20300;-64
2023/04/18 01:48:44;;;;;;;1.10;1.10;;;9.20;99.90;;;;;;4995304;28;20234;-65
2023/04/18 01:51:11;;;;;;;1.10;1.10;;;9.20;99.90;;;;;;4994395;28;20210;-63
2023/04/18 01:53:38;;;;;;;1.00;1.00;;;9.20;99.90;;;;;;4995117;28;20206;-65
2023/04/18 01:56:05;;;;;;;1.00;1.00;;;9.30;99.90;;;;;;4990214;28;20205;-64
2023/04/18 01:58:33;;;;;;;0.90;0.90;;;9.40;99.90;;;;;;4995308;28;20212;-65
2023/04/18 02:01:00;;;;;;;1.00;1.00;;;9.30;99.90;;;;;;4993365;28;20301;-64
2023/04/18 02:03:27;;;;;;;1.00;1.00;;;9.30;99.90;;;;;;4996619;28;20321;-64
2023/04/18 02:05:54;;;;;;;1.00;1.00;;;9.30;99.90;;;;;;4994547;28;20787;-65
2023/04/18 02:08:20;;;;;;;0.90;0.90;;;9.40;99.90;;;;;;4994859;28;20210;-63
2023/04/18 02:10:47;;;;;;;1.10;1.10;;;9.60;99.90;;;;;;4995463;28;20230;-64
2023/04/18 02:13:14;;;;;;;1.13;1.10;;;9.40;99.90;;;;;;4996843;28;20201;-65
2023/04/18 02:15:44;;;;;;;1.50;1.40;;;9.30;99.90;;;;;;4995540;28;20210;-65
2023/04/18 02:18:11;;;;;;;1.40;1.40;;;9.20;99.90;;;;;;4994523;28;20595;-64
2023/04/18 02:20:38;;;;;;;1.20;1.20;;;9.20;99.90;;;;;;4992821;28;20225;-65
2023/04/18 02:23:05;;;;;;;1.20;1.20;;;9.10;99.90;;;;;;4994445;28;20325;-65
2023/04/18 02:25:32;;;;;;;1.20;1.20;;;9.10;99.90;;;;;;4995473;28;20209;-65
2023/04/18 02:27:59;;;;;;;1.30;1.30;;;9.00;99.90;;;;;;5001960;28;20206;-64
2023/04/18 02:30:27;;;;;;;1.15;1.15;;;8.90;99.90;;;;;;5009665;28;20241;-65
2023/04/18 02:32:56;;;;;;;1.30;1.30;;;8.90;99.90;;;;;;5011450;28;20208;-65
2023/04/18 02:35:24;;;;;;;1.50;1.50;;;8.90;99.90;;;;;;5013375;28;20214;-66
2023/04/18 02:37:51;;;;;;;1.30;1.30;;;8.80;99.90;;;;;;5013204;28;20270;-64
2023/04/18 02:40:18;;;;;;;1.40;1.40;;;8.80;99.90;;;;;;5009330;28;20250;-64
2023/04/18 02:42:46;;;;;;;2.10;1.90;;;8.90;99.90;;;;;;5010534;28;20249;-67
2023/04/18 02:45:12;;;;;;;1.50;1.50;;;8.80;99.90;;;;;;5006374;28;20569;-68
2023/04/18 02:47:40;;;;;;;1.80;1.70;;;8.60;99.90;;;;;;4998060;28;20213;-65
2023/04/18 02:50:09;;;;;;;1.80;1.70;;;8.60;99.90;;;;;;4995961;28;20606;-64
2023/04/18 02:52:36;;;;;;;1.50;1.50;;;8.60;99.90;;;;;;4996650;28;20551;-64
2023/04/18 02:55:02;;;;;;;1.93;1.83;;;8.60;99.90;;;;;;4996538;28;20202;-64
2023/04/18 02:57:29;;;;;;;1.80;1.70;;;8.50;99.90;;;;;;4996163;28;20676;-64
2023/04/18 02:59:56;;;;;;;1.95;1.85;;;8.40;99.90;;;;;;4995366;28;20320;-65
2023/04/18 03:02:23;;;;;;;1.80;1.70;;;8.40;99.90;;;;;;4995572;28;20210;-65
2023/04/18 03:04:50;;;;;;;1.60;1.60;;;8.40;99.90;;;;;;4997557;28;20293;-63
2023/04/18 03:07:18;;;;;;;1.93;1.83;;;8.50;99.90;;;;;;4995358;28;20229;-64
2023/04/18 03:09:45;;;;;;;2.13;2.03;;;8.50;99.90;;;;;;4994735;28;20226;-64
2023/04/18 03:12:11;;;;;;;2.30;2.20;;;8.40;99.90;;;;;;4995400;28;20214;-63
2023/04/18 03:14:38;;;;;;;2.00;1.90;;;8.40;99.90;;;;;;4999626;28;20212;-65
2023/04/18 03:17:05;;;;;;;1.93;1.83;;;8.40;99.90;;;;;;4999977;28;20237;-65
2023/04/18 03:19:32;;;;;;;2.00;1.90;;;8.40;99.90;;;;;;4998633;28;20226;-64
2023/04/18 03:21:59;;;;;;;2.10;2.00;;;8.40;99.90;;;;;;4999203;28;20849;-65
2023/04/18 03:24:27;;;;;;;2.10;2.00;;;8.40;99.90;;;;;;4997440;28;20230;-65
2023/04/18 03:26:54;;;;;;;2.40;2.20;;;8.40;99.90;;;;;;4995886;28;20230;-65
2023/04/18 03:29:21;;;;;;;2.27;2.17;;;8.40;99.90;;;;;;4992822;28;20237;-65
2023/04/18 03:31:48;;;;;;;2.40;2.30;;;8.40;99.90;;;;;;4993834;28;20220;-64
2023/04/18 03:34:14;;;;;;;2.55;2.45;;;8.40;99.90;;;;;;4994033;28;20208;-65
2023/04/18 03:36:41;;;;;;;1.90;1.80;;;8.40;99.90;;;;;;4993226;28;20256;-64
2023/04/18 03:39:08;;;;;;;2.17;2.07;;;8.40;99.90;;;;;;4992555;28;20720;-65
2023/04/18 03:41:36;;;;;;;2.40;2.27;;;8.40;99.90;;;;;;4993651;28;20208;-65
2023/04/18 03:44:03;;;;;;;2.38;2.28;;;8.50;99.90;;;;;;5000160;28;20313;-66
2023/04/18 03:46:30;;;;;;;2.50;2.40;;;8.50;99.90;;;;;;4999775;28;20220;-64
2023/04/18 03:48:57;;;;;;;2.60;2.50;;;8.50;99.90;;;;;;4996730;28;20321;-64
2023/04/18 03:51:24;;;;;;;2.42;2.33;;;8.40;99.90;;;;;;4992005;28;20385;-65
2023/04/18 03:53:50;;;;;;;2.40;2.30;;;8.40;99.90;;;;;;4993317;28;20202;-65
2023/04/18 03:56:17;;;;;;;2.67;2.47;;;8.40;99.90;;;;;;4998792;28;20220;-64
2023/04/18 03:58:45;;;;;;;2.30;2.20;;;8.50;99.90;;;;;;5004439;28;20344;-65
2023/04/18 04:01:12;;;;;;;2.80;2.70;;;8.50;99.90;;;;;;5004392;28;20652;-65
2023/04/18 04:03:39;;;;;;;2.40;2.30;;;8.50;99.90;;;;;;5004554;28;20240;-64
2023/04/18 04:06:06;;;;;;;2.60;2.50;;;8.50;99.90;;;;;;5003339;28;20577;-64
2023/04/18 04:08:34;;;;;;;2.30;2.20;;;8.40;99.90;;;;;;4996092;28;20202;-64
2023/04/18 04:11:01;;;;;;;2.33;2.23;;;8.50;99.90;;;;;;4992245;28;20651;-65
2023/04/18 04:13:27;;;;;;;2.22;2.13;;;8.70;99.90;;;;;;4992987;28;20208;-65
2023/04/18 04:15:56;;;;;;;2.25;2.15;;;8.60;99.90;;;;;;4994635;28;20297;-65
2023/04/18 04:18:28;;;;;;;2.47;2.38;;;8.70;99.90;;;;;;4995742;28;20679;-64
2023/04/18 04:20:55;;;;;;;2.30;2.20;;;8.60;99.90;;;;;;4995402;28;20210;-65
2023/04/18 04:23:24;;;;;;;2.50;2.40;;;8.70;99.90;;;;;;4995807;28;20228;-66
2023/04/18 04:25:51;;;;;;;2.20;2.10;;;8.70;99.90;;;;;;4995224;28;20649;-65
2023/04/18 04:28:21;;;;;;;2.60;2.50;;;8.70;99.90;;;;;;4995673;28;20205;-64
2023/04/18 04:30:49;;;;;;;2.30;2.20;;;8.70;99.90;;;;;;4995293;28;20221;-65
2023/04/18 04:33:18;;;;;;;2.88;2.78;;;8.60;99.90;;;;;;4996355;28;20204;-64
2023/04/18 04:35:45;;;;;;;2.60;2.50;;;8.50;99.90;;;;;;4997319;28;20716;-65
2023/04/18 04:38:13;;;;;;;2.73;2.63;;;8.50;99.90;;;;;;4994053;28;20214;-65
2023/04/18 04:40:40;;;;;;;2.60;2.50;;;8.50;99.90;;;;;;4989112;28;20222;-64
2023/04/18 04:43:06;;;;;;;2.70;2.60;;;8.50;99.90;;;;;;4991261;28;20209;-64
2023/04/18 04:45:35;;;;;;;2.78;2.67;;;8.50;99.90;;;;;;4992702;28;20217;-65
2023/04/18 04:48:01;;;;;;;2.67;2.50;;;8.60;99.90;;;;;;4991829;28;20231;-64
2023/04/18 04:50:30;;;;;;;2.50;2.40;;;8.70;99.90;;;;;;4992617;28;20236;-62
2023/04/18 04:52:56;;;;;;;2.70;2.60;;;8.70;99.90;;;;;;4993641;28;20293;-63
2023/04/18 04:55:23;;;;;;;2.63;2.53;;;8.70;99.90;;;;;;4993653;28;20209;-63
2023/04/18 04:57:50;;;;;;;2.50;2.40;;;8.80;99.90;;;;;;4993350;28;20301;-63
2023/04/18 05:00:19;;;;;;;2.67;2.50;;;8.80;99.90;;;;;;5000202;28;20226;-64
2023/04/18 05:02:46;;;;;;;2.50;2.40;;;8.80;99.90;;;;;;4992622;28;20213;-63
2023/04/18 05:05:13;;;;;;;2.42;2.33;;;8.80;99.90;;;;;;4996268;28;20317;-62
2023/04/18 05:07:41;;;;;;;2.10;2.00;;;8.80;99.90;;;;;;4995689;28;20944;-63
2023/04/18 05:10:09;;;;;;;2.00;1.90;;;8.80;99.90;;;;;;4994702;28;20230;-64
2023/04/18 05:12:36;;;;;;;2.50;2.40;;;8.90;99.90;;;;;;4993296;28;20220;-64
2023/04/18 05:15:03;;;;;;;2.33;2.23;;;9.00;99.90;;;;;;4996027;28;20202;-64
2023/04/18 05:17:30;;;;;;;2.37;2.27;;;9.00;99.90;;;;;;4999137;28;20681;-63
2023/04/18 05:19:56;;;;;;;2.40;2.30;;;9.10;99.90;;;;;;5000204;28;20268;-62
2023/04/18 05:22:23;;;;;;;2.23;2.13;;;9.10;99.90;;;;;;5000974;28;20245;-63
2023/04/18 05:24:51;;;;;;;2.50;2.40;;;9.00;99.90;;;;;;5000300;28;20228;-64
2023/04/18 05:27:18;;;;;;;2.20;2.10;;;9.10;99.90;;;;;;4999368;28;20210;-64
2023/04/18 05:29:46;;;;;;;2.20;2.10;;;9.20;99.90;;;;;;4996209;28;20316;-63
2023/04/18 05:32:13;;;;;;;2.43;2.23;;;9.30;99.90;;;;;;4997621;28;20202;-62
2023/04/18 05:34:41;;;;;;;2.50;2.40;;;9.40;99.90;;;;;;4990177;28;20238;-63
2023/04/18 05:37:07;;;;;;;2.70;2.50;;;9.40;99.90;;;;;;4995144;28;20278;-63
2023/04/18 05:39:34;;;;;;;2.40;2.30;;;9.40;99.90;;;;;;4993836;28;20308;-63
2023/04/18 05:42:03;;;;;;;2.50;2.40;;;9.30;99.90;;;;;;4998375;28;20826;-63
2023/04/18 05:44:30;;;;;;;2.20;2.10;;;9.40;99.90;;;;;;4997441;28;20222;-64
2023/04/18 05:46:56;;;;;;;2.50;2.40;;;9.40;99.90;;;;;;5000876;28;20296;-62
2023/04/18 05:49:23;;;;;;;2.40;2.30;;;9.50;99.90;;;;;;4997825;28;20226;-61
2023/04/18 05:51:51;;;;;;;2.53;2.43;;;9.30;99.90;;;;;;4982733;28;20206;-62
2023/04/18 05:54:20;;;;;;;2.50;2.40;;;9.40;99.90;;;;;;4992664;28;20224;-63
2023/04/18 05:56:47;;;;;;;2.67;2.57;;;9.40;99.90;;;;;;4994557;28;20214;-64
2023/04/18 05:59:15;;;;;;;2.00;1.90;;;9.40;99.90;;;;;;4993064;28;20253;-62
2023/04/18 06:01:42;;;;;;;2.08;1.98;;;9.50;99.90;;;;;;4993791;28;20214;-64
2023/04/18 06:04:09;;;;;;;2.47;2.37;;;9.60;99.90;;;;;;4994393;28;20313;-64
2023/04/18 06:06:36;;;;;;;2.40;2.30;;;9.70;99.90;;;;;;4995009;28;20222;-62
2023/04/18 06:09:03;;;;;;;2.50;2.40;;;9.80;99.90;;;;;;4994087;28;20321;-64
2023/04/18 06:11:32;;;;;;;2.10;2.00;;;9.80;99.90;;;;;;4995668;28;20202;-63
2023/04/18 06:13:59;;;;;;;2.60;2.40;;;9.90;99.90;;;;;;4997843;28;20206;-63
2023/04/18 06:16:27;;;;;;;2.65;2.47;;;9.90;99.90;;;;;;4994508;28;20633;-64
2023/04/18 06:18:54;;;;;;;2.60;2.50;;;9.90;99.90;;;;;;4994840;28;20222;-64
2023/04/18 06:21:21;;;;;;;2.47;2.37;;;9.90;99.90;;;;;;4993957;28;20210;-62
2023/04/18 06:23:48;;;;;;;1.90;1.80;;;9.90;99.90;;;;;;4994081;28;20221;-64
2023/04/18 06:26:16;;;;;;;2.20;2.10;;;9.90;99.90;;;;;;4995781;28;20210;-63
2023/04/18 06:28:42;;;;;;;2.50;2.40;;;10.00;99.90;;;;;;4994645;28;20768;-63
2023/04/18 06:31:09;;;;;;;2.50;2.40;;;9.80;99.90;;;;;;4996288;28;20210;-63
2023/04/18 06:33:37;;;;;;;2.10;2.00;;;9.80;99.90;;;;;;4994766;28;20293;-63
2023/04/18 06:36:06;;;;;;;2.45;2.35;;;9.80;99.90;;;;;;4993773;28;20293;-64
2023/04/18 06:38:33;;;;;;;2.20;2.10;;;9.90;99.90;;;;;;4993289;28;20236;-62
2023/04/18 06:41:00;;;;;;;2.37;2.27;;;9.90;99.90;;;;;;4991674;28;20581;-62
2023/04/18 06:43:27;;;;;;;2.47;2.38;;;10.00;99.90;;;;;;4995257;28;20206;-64
2023/04/18 06:45:54;;;;;;;2.40;2.30;;;10.00;99.90;;;;;;4995919;28;20244;-63
2023/04/18 06:48:21;;;;;;;2.57;2.47;;;10.00;99.90;;;;;;4994923;28;20681;-62
2023/04/18 06:50:49;;;;;;;2.50;2.40;;;9.90;99.90;;;;;;4990597;28;20237;-63
2023/04/18 06:53:16;;;;;;;2.50;2.40;;;9.90;99.90;;;;;;4993838;28;20372;-63
2023/04/18 06:55:43;;;;;;;2.70;2.60;;;9.90;99.90;;;;;;4993455;28;20202;-62
2023/04/18 06:58:12;;;;;;;2.70;2.60;;;9.70;99.90;;;;;;4994053;28;20208;-63
2023/04/18 07:00:39;;;;;;;2.47;2.35;;;9.80;99.90;;;;;;4992933;28;20321;-64
2023/04/18 07:03:08;;;;;;;2.38;2.20;;;9.80;99.90;;;;;;4993414;28;20288;-63
2023/04/18 07:05:36;;;;;;;2.33;2.23;;;9.90;99.90;;;;;;4993406;28;20320;-64
2023/04/18 07:08:04;;;;;;;2.40;2.30;;;9.90;99.90;;;;;;4994076;28;20206;-64
2023/04/18 07:10:31;;;;;;;2.40;2.30;;;9.90;99.90;;;;;;5002002;28;20226;-63
2023/04/18 07:12:58;;;;;;;2.20;2.10;;;10.00;99.90;;;;;;4995899;28;20212;-61
2023/04/18 07:15:25;;;;;;;2.47;2.37;;;10.00;99.90;;;;;;4993386;28;20206;-62
2023/04/18 07:17:52;;;;;;;2.67;2.58;;;10.20;99.90;;;;;;4991872;28;20612;-63
2023/04/18 07:20:18;;;;;;;2.92;2.72;;;10.20;99.90;;;;;;4991390;28;20226;-63
2023/04/18 07:22:46;;;;;;;2.33;2.23;;;10.10;99.90;;;;;;4991800;28;20857;-63
2023/04/18 07:25:15;;;;;;;2.70;2.60;;;10.10;99.90;;;;;;4992131;28;20265;-62
2023/04/18 07:27:41;;;;;;;2.23;2.13;;;10.10;99.90;;;;;;4990900;28;20205;-63
2023/04/18 07:30:09;;;;;;;2.30;2.20;;;10.10;99.90;;;;;;4990581;28;20321;-64
2023/04/18 07:32:36;;;;;;;2.80;2.60;;;10.10;99.90;;;;;;4991584;28;20212;-61
2023/04/18 07:35:04;;;;;;;2.40;2.30;;;10.20;99.90;;;;;;4992195;28;20221;-63
2023/04/18 07:37:31;;;;;;;2.60;2.50;;;10.20;99.90;;;;;;4991953;28;20301;-64
2023/04/18 07:39:58;;;;;;;2.50;2.30;;;10.30;99.90;;;;;;4989726;28;20229;-62
2023/04/18 07:42:26;;;;;;;2.23;2.10;;;10.30;99.90;;;;;;4992877;28;20689;-63
2023/04/18 07:44:57;;;;;;;2.40;2.20;;;10.30;99.90;;;;;;4992532;28;20228;-63
2023/04/18 07:47:24;;;;;;;2.27;2.17;;;10.40;99.90;;;;;;4992600;28;20677;-62
2023/04/18 07:49:51;;;;;;;2.60;2.50;;;10.40;99.90;;;;;;4991507;28;20225;-62
2023/04/18 07:52:18;;;;;;;2.60;2.50;;;10.40;99.90;;;;;;4992485;28;20581;-64
2023/04/18 07:54:45;;;;;;;2.55;2.40;;;10.40;99.90;;;;;;4992761;28;20213;-62
2023/04/18 07:57:12;;;;;;;2.53;2.43;;;10.40;99.90;;;;;;4992334;28;20272;-63
2023/04/18 07:59:40;;;;;;;2.50;2.40;;;10.40;99.90;;;;;;4991674;28;20226;-63
2023/04/18 08:02:07;;;;;;;2.53;2.43;;;10.40;99.90;;;;;;4992683;28;20214;-63
2023/04/18 08:04:34;;;;;;;2.50;2.40;;;10.40;99.90;;;;;;4992061;28;20225;-63
2023/04/18 08:07:01;;;;;;;2.40;2.30;;;10.30;99.90;;;;;;4994267;28;20643;-64
2023/04/18 08:09:28;;;;;;;2.30;2.20;;;10.30;99.90;;;;;;4993213;28;20225;-63
2023/04/18 08:11:55;;;;;;;2.40;2.30;;;10.30;99.90;;;;;;4993178;28;20206;-63
2023/04/18 08:14:22;;;;;;;2.63;2.53;;;10.20;99.90;;;;;;4992629;28;20693;-64
2023/04/18 08:16:50;;;;;;;2.60;2.50;;;10.20;99.90;;;;;;4992771;28;20665;-64
2023/04/18 08:19:17;;;;;;;2.60;2.50;;;10.10;99.90;;;;;;4992051;28;20870;-64
2023/04/18 08:21:44;;;;;;;2.63;2.50;;;10.00;99.90;;;;;;4992410;28;20208;-64
2023/04/18 08:24:11;;;;;;;2.70;2.60;;;10.00;99.90;;;;;;4992201;28;20228;-64
2023/04/18 08:26:38;;;;;;;2.40;2.30;;;9.90;99.90;;;;;;4992317;28;20209;-64
2023/04/18 08:29:05;;;;;;;2.63;2.53;;;9.80;99.90;;;;;;4992200;28;20244;-62
2023/04/18 08:31:31;;;;;;;2.80;2.60;;;9.90;99.90;;;;;;4992311;28;20207;-62
2023/04/18 08:34:00;;;;;;;2.20;2.10;;;10.00;99.90;;;;;;4992627;28;20214;-62
2023/04/18 08:36:26;;;;;;;2.77;2.57;;;10.00;99.90;;;;;;4992416;28;20205;-64
2023/04/18 08:38:53;;;;;;;2.93;2.73;;;10.10;99.90;;;;;;4995430;28;20253;-64
2023/04/18 08:41:22;;;;;;;2.67;2.47;;;10.10;99.90;;;;;;5000725;28;20297;-64
2023/04/18 08:43:48;;;;;;;2.47;2.37;;;10.10;99.90;;;;;;5010848;28;20202;-62
2023/04/18 08:46:16;;;;;;;2.60;2.40;;;10.00;99.90;;;;;;5011358;28;20260;-62
2023/04/18 08:48:43;;;;;;;2.57;2.37;;;10.10;99.90;;;;;;5003246;28;20562;-62
2023/04/18 08:51:11;;;;;;;2.47;2.37;;;10.20;99.90;;;;;;4995741;28;20205;-63
2023/04/18 08:53:40;;;;;;;2.33;2.23;;;10.40;99.90;;;;;;4996600;28;20205;-64
2023/04/18 08:56:09;;;;;;;2.60;2.50;;;10.20;99.90;;;;;;4996457;28;20210;-63
2023/04/18 08:58:36;;;;;;;2.70;2.60;;;10.20;99.90;;;;;;5004664;28;20324;-63
2023/04/18 09:01:03;;;;;;;2.38;2.28;;;10.30;99.90;;;;;;4999987;28;20692;-64
2023/04/18 09:03:38;;;;;;;2.43;2.27;;;10.40;99.90;;;;;;4996094;28;20231;-64
2023/04/18 09:06:15;;;;;;;2.10;2.00;;;10.50;99.90;;;;;;4995900;28;20692;-64
2023/04/18 09:08:43;;;;;;;2.30;2.20;;;10.50;99.90;;;;;;4995299;28;20241;-62
2023/04/18 09:11:24;;;;;;;2.50;2.30;;;10.50;99.90;;;;;;4994645;28;20206;-65
2023/04/18 09:13:52;;;;;;;2.53;2.40;;;10.50;99.90;;;;;;4995330;28;20325;-69
2023/04/18 09:16:21;;;;;;;2.58;2.47;;;10.50;99.90;;;;;;4996036;28;20206;-63
2023/04/18 09:19:11;;;;;;;3.40;3.20;;;10.60;99.90;;;;;;4995727;28;20234;-63
2023/04/18 09:21:43;;;;;;;2.70;2.60;;;10.70;99.90;;;;;;4995582;28;20577;-63
2023/04/18 09:24:19;;;;;;;2.40;2.30;;;10.80;99.90;;;;;;4995465;28;20217;-63
2023/04/18 09:26:48;;;;;;;2.30;2.20;;;11.00;99.90;;;;;;4995676;28;20228;-64
2023/04/18 09:29:16;;;;;;;2.30;2.20;;;11.00;99.90;;;;;;4994734;28;20320;-63
2023/04/18 09:31:58;;;;;;;2.15;2.05;;;11.10;99.90;;;;;;4995263;28;20242;-64
2023/04/18 09:34:26;;;;;;;2.63;2.53;;;11.20;99.90;;;;;;4995453;28;20206;-66
2023/04/18 09:37:08;;;;;;;2.08;1.98;;;11.40;99.90;;;;;;4994868;28;20241;-62
2023/04/18 09:39:36;;;;;;;2.10;2.00;;;11.50;99.90;;;;;;4994809;28;20732;-62
2023/04/18 09:42:03;;;;;;;2.07;1.97;;;11.40;99.90;;;;;;4995044;28;20210;-62
2023/04/18 09:44:30;;;;;;;2.30;2.20;;;11.40;99.90;;;;;;4996123;28;20380;-62
2023/04/18 09:46:57;;;;;;;2.60;2.50;;;11.50;99.90;;;;;;4996102;28;20800;-62
2023/04/18 09:49:24;;;;;;;2.30;2.20;;;11.30;99.90;;;;;;4993787;28;20999;-62
2023/04/18 09:51:53;;;;;;;2.30;2.20;;;11.40;99.90;;;;;;4996066;28;20210;-63
2023/04/18 09:54:24;;;;;;;2.40;2.30;;;11.60;99.90;;;;;;5003728;28;20281;-62
2023/04/18 09:56:53;;;;;;;2.10;2.00;;;11.70;99.90;;;;;;5003799;28;20187;-63
2023/04/18 09:59:36;;;;;;;2.23;2.13;;;11.80;99.90;;;;;;4998905;28;20490;-64
2023/04/18 10:02:08;;;;;;;2.20;2.10;;;12.00;99.90;;;;;;4996881;28;20212;-62
2023/04/18 10:04:35;;;;;;;2.50;2.40;;;12.00;99.90;;;;;;4995567;28;20297;-63
2023/04/18 10:07:03;;;;;;;2.10;2.00;;;12.10;99.90;;;;;;5002518;28;20264;-63
2023/04/18 10:09:33;;;;;;;2.20;2.10;;;12.10;99.90;;;;;;4994032;28;20301;-63
2023/04/18 10:12:01;;;;;;;2.20;2.10;;;12.20;99.90;;;;;;4994652;28;20693;-65
2023/04/18 10:14:29;;;;;;;2.20;2.10;;;12.40;99.90;;;;;;4994467;28;20209;-63
2023/04/18 10:16:57;;;;;;;2.13;2.03;;;12.50;99.90;;;;;;4996455;28;20202;-64
2023/04/18 10:19:24;;;;;;;2.03;1.93;;;12.60;99.90;;;;;;4994313;28;20320;-64
2023/04/18 10:21:52;;;;;;;2.27;2.17;;;12.60;99.90;;;;;;4993649;28;20214;-61
2023/04/18 10:24:51;;;;;;;2.33;2.23;;;12.60;99.90;;;;;;4994810;28;20305;-63
2023/04/18 10:27:19;;;;;;;2.22;2.13;;;12.70;99.90;;;;;;5003216;28;20301;-64
2023/04/18 10:29:47;;;;;;;2.30;2.20;;;12.80;99.90;;;;;;4993884;28;20421;-63
2023/04/18 10:32:14;;;;;;;1.95;1.85;;;12.90;99.90;;;;;;4995493;28;20239;-62
2023/04/18 10:34:41;;;;;;;2.20;2.10;;;12.90;99.90;;;;;;5000334;28;20206;-66
2023/04/18 10:37:08;;;;;;;2.40;2.30;;;12.90;99.90;;;;;;5001716;28;20206;-61
2023/04/18 10:39:50;;;;;;;2.17;2.07;;;12.90;99.90;;;;;;4998648;28;20234;-62
2023/04/18 10:42:18;;;;;;;2.20;2.10;;;13.20;99.90;;;;;;4999904;28;20296;-64
2023/04/18 10:45:17;;;;;;;1.90;1.80;;;13.20;99.90;;;;;;4997446;28;20210;-62
2023/04/18 10:47:44;;;;;;;2.10;2.00;;;13.20;99.90;;;;;;4996581;28;20186;-63
2023/04/18 10:50:11;;;;;;;1.80;1.70;;;13.20;99.90;;;;;;4997298;28;20232;-64
2023/04/18 10:52:38;;;;;;;1.97;1.87;;;13.30;99.90;;;;;;4998557;28;20296;-62
2023/04/18 10:55:13;;;;;;;2.08;1.98;;;13.50;99.90;;;;;;4998240;28;20217;-63
2023/04/18 10:57:41;;;;;;;2.10;2.00;;;13.60;99.90;;;;;;4994151;28;20215;-63
2023/04/18 11:00:11;;;;;;;2.10;2.00;;;13.60;99.90;;;;;;4993272;28;20316;-64
2023/04/18 11:02:39;;;;;;;2.00;1.90;;;13.70;99.90;;;;;;4994347;28;20237;-64
2023/04/18 11:05:07;;;;;;;2.13;2.03;;;13.70;99.90;;;;;;4994341;28;20268;-62
2023/04/18 11:07:35;;;;;;;2.00;1.90;;;13.80;99.90;;;;;;4991756;28;20715;-64
2023/04/18 11:10:03;;;;;;;2.00;1.90;;;13.80;99.90;;;;;;4993245;28;20229;-62
2023/04/18 11:12:32;;;;;;;2.30;2.05;;;13.90;99.90;;;;;;4994900;28;20206;-64
2023/04/18 11:15:01;;;;;;;1.80;1.70;;;14.00;99.90;;;;;;4993424;28;20206;-65
2023/04/18 11:17:31;;;;;;;1.90;1.80;;;14.10;99.90;;;;;;4992825;28;20236;-64
2023/04/18 11:20:07;;;;;;;2.13;2.03;;;13.90;99.90;;;;;;4992701;28;20238;-63
2023/04/18 11:22:44;;;;;;;2.00;1.90;;;13.90;99.90;;;;;;4993658;28;20209;-64
2023/04/18 11:25:11;;;;;;;1.90;1.80;;;13.90;99.90;;;;;;4994149;28;20202;-63
2023/04/18 11:27:41;;;;;;;1.80;1.70;;;14.00;99.90;;;;;;4996100;28;20696;-64
2023/04/18 11:30:09;;;;;;;2.00;1.90;;;14.20;99.90;;;;;;4992509;28;20234;-63
2023/04/18 11:32:36;;;;;;;1.90;1.80;;;14.30;99.90;;;;;;4994263;28;20241;-62
2023/04/18 11:35:03;;;;;;;1.90;1.80;;;14.40;99.90;;;;;;4992018;28;20214;-63
2023/04/18 11:37:31;;;;;;;1.97;1.87;;;14.40;99.90;;;;;;4991829;28;20206;-62
2023/04/18 11:39:58;;;;;;;2.22;2.13;;;14.50;99.90;;;;;;4992480;28;20344;-63
2023/04/18 11:42:27;;;;;;;2.00;1.90;;;14.50;99.90;;;;;;4992460;28;20567;-63
2023/04/18 11:44:55;;;;;;;2.00;1.90;;;14.50;99.90;;;;;;4995060;28;20233;-62
2023/04/18 11:47:23;;;;;;;2.53;2.43;;;14.40;99.90;;;;;;4997253;28;20232;-63
2023/04/18 11:49:56;;;;;;;1.90;1.80;;;14.50;99.90;;;;;;4997596;28;20787;-63
2023/04/18 11:52:24;;;;;;;1.98;1.88;;;14.50;99.90;;;;;;5005882;28;20201;-62
2023/04/18 11:54:51;;;;;;;1.90;1.80;;;14.60;99.90;;;;;;4994102;28;20206;-64
2023/04/18 11:57:23;;;;;;;1.70;1.70;;;14.80;99.90;;;;;;4991691;28;20669;-62
2023/04/18 11:59:51;;;;;;;1.50;1.50;;;14.80;99.90;;;;;;4991855;28;20236;-62
2023/04/18 12:02:21;;;;;;;1.70;1.60;;;14.70;99.90;;;;;;4991476;28;20277;-63
2023/04/18 12:04:52;;;;;;;1.80;1.70;;;14.70;99.90;;;;;;4991683;28;20214;-62
2023/04/18 12:07:36;;;;;;;1.85;1.75;;;14.70;99.90;;;;;;4992442;28;20235;-62
2023/04/18 12:10:05;;;;;;;1.90;1.80;;;14.70;99.90;;;;;;4989663;28;20280;-63
2023/04/18 12:12:33;;;;;;;1.50;1.50;;;14.70;99.90;;;;;;4992727;28;20629;-61
2023/04/18 12:15:01;;;;;;;1.50;1.50;;;14.90;99.90;;;;;;4998051;28;20209;-63
2023/04/18 12:17:30;;;;;;;1.55;1.55;;;15.00;99.90;;;;;;4998198;28;20583;-63
2023/04/18 12:20:01;;;;;;;1.80;1.70;;;15.20;99.90;;;;;;4997122;28;20256;-64
2023/04/18 12:22:42;;;;;;;1.60;1.60;;;15.30;99.90;;;;;;4998281;28;20210;-65
2023/04/18 12:25:21;;;;;;;1.88;1.77;;;15.20;99.90;;;;;;4998750;28;20668;-63
2023/04/18 12:27:53;;;;;;;1.90;1.80;;;15.20;99.90;;;;;;4998505;28;20649;-64
2023/04/18 12:30:21;;;;;;;1.60;1.60;;;15.20;99.90;;;;;;4997774;28;20229;-62
2023/04/18 12:32:51;;;;;;;1.75;1.65;;;15.20;99.90;;;;;;5009321;28;20213;-63
2023/04/18 12:35:18;;;;;;;1.50;1.50;;;15.30;99.90;;;;;;5006002;28;20633;-65
2023/04/18 12:37:46;;;;;;;1.77;1.70;;;15.30;99.90;;;;;;5005318;28;20205;-63
2023/04/18 12:40:13;;;;;;;1.65;1.55;;;15.30;99.90;;;;;;5004832;28;20297;-62
2023/04/18 12:42:41;;;;;;;1.60;1.60;;;15.30;99.90;;;;;;5007834;28;20205;-62
2023/04/18 12:45:10;;;;;;;1.77;1.67;;;15.40;99.90;;;;;;5001024;28;20228;-62
2023/04/18 12:47:38;;;;;;;1.87;1.77;;;15.40;99.90;;;;;;4995504;28;20230;-63
2023/04/18 12:50:08;;;;;;;1.70;1.60;;;15.30;99.90;;;;;;4995455;28;20229;-63
2023/04/18 12:52:37;;;;;;;1.50;1.50;;;15.30;99.90;;;;;;4996199;28;20217;-63
2023/04/18 12:55:04;;;;;;;1.80;1.70;;;15.30;99.90;;;;;;4996425;28;20703;-63